createdAt,value
2022-12-06T00:01:34.911Z,100899.99
2022-12-06T00:04:06.900Z,100895.27
2022-12-06T00:06:39.411Z,100902.98
2022-12-06T00:09:08.963Z,100898.66
2022-12-06T00:11:37.655Z,100900.24
2022-12-06T00:14:07.235Z,100905.40
2022-12-06T00:16:35.936Z,100908.38
2022-12-06T00:19:05.357Z,100902.92
2022-12-06T00:21:36.675Z,100902.49
2022-12-06T00:24:13.909Z,100905.95
2022-12-06T00:26:44.527Z,100902.34
2022-12-06T00:29:15.369Z,100904.36
2022-12-06T00:31:45.882Z,100904.30
2022-12-06T00:34:14.281Z,100903.07
2022-12-06T00:36:42.971Z,100899.83
2022-12-06T00:39:14.401Z,100895.50
2022-12-06T00:41:43.523Z,100893.67
2022-12-06T00:44:12.523Z,100893.05
2022-12-06T00:46:41.313Z,100890.05
2022-12-06T00:49:10.093Z,100883.38
2022-12-06T00:51:39.116Z,100879.27
2022-12-06T00:54:08.922Z,100878.92
2022-12-06T00:56:37.146Z,100870.11
2022-12-06T00:59:06.207Z,100861.31
2022-12-06T01:01:35.428Z,100862.04
2022-12-06T01:04:06.065Z,100857.39
2022-12-06T01:06:35.839Z,100857.89
2022-12-06T01:09:07.376Z,100858.25
2022-12-06T01:11:35.786Z,100857.04
2022-12-06T01:14:03.963Z,100854.56
2022-12-06T01:16:32.425Z,100847.62
2022-12-06T01:19:03.959Z,100850.06
2022-12-06T01:21:31.979Z,100851.76
2022-12-06T01:24:00.163Z,100856.46
2022-12-06T01:26:33.468Z,100861.59
2022-12-06T01:29:02.571Z,100871.35
2022-12-06T01:31:37.542Z,100878.57
2022-12-06T01:34:15.914Z,100890.17
2022-12-06T01:36:44.687Z,100896.85
2022-12-06T01:39:12.873Z,100907.40
2022-12-06T01:41:41.150Z,100914.31
2022-12-06T01:44:41.458Z,100918.75
2022-12-06T01:47:14.013Z,100916.67
2022-12-06T01:49:46.924Z,100912.60
2022-12-06T01:52:16.536Z,100911.79
2022-12-06T01:54:45.329Z,100907.46
2022-12-06T01:57:16.028Z,100897.09
2022-12-06T01:59:45.364Z,100884.03
2022-12-06T02:02:13.901Z,100874.70
2022-12-06T02:04:43.160Z,100872.89
2022-12-06T02:07:12.666Z,100875.12
2022-12-06T02:09:41.662Z,100877.15
2022-12-06T02:12:16.598Z,100879.51
2022-12-06T02:14:48.974Z,100872.11
2022-12-06T02:17:49.076Z,100863.40
2022-12-06T02:20:33.261Z,100858.73
2022-12-06T02:23:07.383Z,100867.41
2022-12-06T02:26:13.091Z,100865.66
2022-12-06T02:29:01.713Z,100865.93
2022-12-06T02:31:49.333Z,100862.58
2022-12-06T02:34:46.623Z,100854.65
2022-12-06T02:37:23.256Z,100854.23
2022-12-06T02:39:51.524Z,100856.02
2022-12-06T02:42:25.139Z,100854.36
2022-12-06T02:45:00.480Z,100854.84
2022-12-06T02:47:34.599Z,100850.45
2022-12-06T02:50:08.821Z,100846.73
2022-12-06T02:52:41.739Z,100848.18
2022-12-06T02:55:12.111Z,100850.05
2022-12-06T02:57:40.190Z,100850.90
2022-12-06T03:00:27.604Z,100852.10
2022-12-06T03:03:35.083Z,100851.20
2022-12-06T03:06:03.286Z,100851.48
2022-12-06T03:08:46.586Z,100850.66
2022-12-06T03:11:15.476Z,100852.41
2022-12-06T03:14:07.998Z,100847.45
2022-12-06T03:16:49.390Z,100849.86
2022-12-06T03:19:23.053Z,100851.00
2022-12-06T03:21:58.232Z,100847.17
2022-12-06T03:24:29.380Z,100843.67
2022-12-06T03:27:00.219Z,100844.48
2022-12-06T03:29:31.876Z,100845.48
2022-12-06T03:32:03.432Z,100849.73
2022-12-06T03:34:38.302Z,100850.27
2022-12-06T03:37:10.838Z,100851.59
2022-12-06T03:39:48.415Z,100850.35
2022-12-06T03:42:18.499Z,100851.27
2022-12-06T03:44:47.243Z,100848.75
2022-12-06T03:47:24.451Z,100849.87
2022-12-06T03:50:04.953Z,100845.73
2022-12-06T03:52:34.394Z,100849.24
2022-12-06T03:55:02.532Z,100844.66
2022-12-06T03:57:30.648Z,100846.73
2022-12-06T03:59:59.226Z,100839.81
2022-12-06T04:02:27.518Z,100842.76
2022-12-06T04:04:55.701Z,100837.67
2022-12-06T04:07:23.952Z,100838.37
2022-12-06T04:09:52.266Z,100831.91
2022-12-06T04:12:20.433Z,100832.29
2022-12-06T04:14:48.714Z,100836.92
2022-12-06T04:17:16.909Z,100840.13
2022-12-06T04:19:49.376Z,100845.34
2022-12-06T04:22:20.413Z,100843.58
2022-12-06T04:24:48.387Z,100848.33
2022-12-06T04:27:16.462Z,100844.85
2022-12-06T04:29:44.742Z,100846.05
2022-12-06T04:32:13.127Z,100838.64
2022-12-06T04:34:41.204Z,100835.64
2022-12-06T04:37:10.199Z,100832.48
2022-12-06T04:39:38.382Z,100835.05
2022-12-06T04:42:06.633Z,100832.55
2022-12-06T04:44:34.842Z,100832.70
2022-12-06T04:47:03.671Z,100836.04
2022-12-06T04:49:32.117Z,100837.42
2022-12-06T04:52:00.746Z,100836.63
2022-12-06T04:54:29.290Z,100842.50
2022-12-06T04:56:58.185Z,100846.63
2022-12-06T04:59:27.686Z,100853.27
2022-12-06T05:01:57.202Z,100858.39
2022-12-06T05:04:25.249Z,100858.31
2022-12-06T05:06:53.460Z,100857.89
2022-12-06T05:09:21.587Z,100861.92
2022-12-06T05:11:49.711Z,100863.10
2022-12-06T05:14:17.889Z,100863.05
2022-12-06T05:16:46.139Z,100861.21
2022-12-06T05:19:14.672Z,100862.35
2022-12-06T05:21:42.833Z,100861.16
2022-12-06T05:24:11.014Z,100862.20
2022-12-06T05:26:39.189Z,100859.35
2022-12-06T05:29:07.580Z,100858.62
2022-12-06T05:31:35.584Z,100860.32
2022-12-06T05:34:03.831Z,100863.02
2022-12-06T05:36:32.311Z,100865.77
2022-12-06T05:39:00.405Z,100869.66
2022-12-06T05:41:28.464Z,100869.02
2022-12-06T05:43:56.743Z,100871.77
2022-12-06T05:46:25.255Z,100873.46
2022-12-06T05:48:53.514Z,100873.95
2022-12-06T05:51:21.825Z,100877.98
2022-12-06T05:53:50.077Z,100880.89
2022-12-06T05:56:18.148Z,100885.54
2022-12-06T05:58:46.429Z,100887.56
2022-12-06T06:01:14.509Z,100892.33
2022-12-06T06:03:47.458Z,100893.83
2022-12-06T06:06:17.754Z,100898.02
2022-12-06T06:08:45.899Z,100900.57
2022-12-06T06:11:13.876Z,100903.06
2022-12-06T06:13:42.251Z,100907.50
2022-12-06T06:16:10.388Z,100916.61
2022-12-06T06:18:38.916Z,100922.40
2022-12-06T06:21:07.102Z,100927.68
2022-12-06T06:23:35.276Z,100927.02
2022-12-06T06:26:08.210Z,100933.63
2022-12-06T06:28:36.233Z,100935.67
2022-12-06T06:31:08.608Z,100935.80
2022-12-06T06:33:36.688Z,100938.92
2022-12-06T06:36:05.172Z,100943.61
2022-12-06T06:38:33.660Z,100945.33
2022-12-06T06:41:03.062Z,100946.14
2022-12-06T06:43:31.546Z,100943.73
2022-12-06T06:46:06.119Z,100942.31
2022-12-06T06:48:37.527Z,100940.79
2022-12-06T06:51:09.258Z,100942.27
2022-12-06T06:53:38.895Z,100946.17
2022-12-06T06:56:07.559Z,100951.41
2022-12-06T06:58:36.071Z,100955.15
2022-12-06T07:01:06.253Z,100955.39
2022-12-06T07:03:35.705Z,100949.84
2022-12-06T07:06:08.349Z,100949.64
2022-12-06T07:08:37.589Z,100949.52
2022-12-06T07:11:06.022Z,100950.54
2022-12-06T07:13:34.726Z,100947.08
2022-12-06T07:16:08.432Z,100949.52
2022-12-06T07:18:36.647Z,100953.78
2022-12-06T07:21:07.281Z,100957.39
2022-12-06T07:23:36.593Z,100954.79
2022-12-06T07:26:12.534Z,100951.80
2022-12-06T07:28:43.782Z,100948.68
2022-12-06T07:31:12.945Z,100943.98
2022-12-06T07:33:41.845Z,100943.80
2022-12-06T07:36:13.571Z,100947.36
2022-12-06T07:38:44.134Z,100948.08
2022-12-06T07:41:13.504Z,100952.52
2022-12-06T07:43:41.551Z,100955.85
2022-12-06T07:46:13.691Z,100958.39
2022-12-06T07:48:41.899Z,100965.10
2022-12-06T07:51:10.025Z,100970.54
2022-12-06T07:53:38.256Z,100971.35
2022-12-06T07:56:07.632Z,100977.55
2022-12-06T07:58:35.562Z,100976.29
2022-12-06T08:01:04.805Z,100981.44
2022-12-06T08:03:33.134Z,100981.66
2022-12-06T08:06:01.297Z,100977.27
2022-12-06T08:08:30.127Z,100980.92
2022-12-06T08:11:02.697Z,100978.02
2022-12-06T08:13:31.181Z,100981.73
2022-12-06T08:15:59.396Z,100983.21
2022-12-06T08:18:27.431Z,100986.45
2022-12-06T08:20:59.590Z,100992.48
2022-12-06T08:23:34.116Z,100994.67
2022-12-06T08:26:06.481Z,100997.66
2022-12-06T08:28:36.596Z,100998.69
2022-12-06T08:31:09.827Z,101004.08
2022-12-06T08:33:38.273Z,101005.04
2022-12-06T08:36:15.284Z,101003.54
2022-12-06T08:38:43.329Z,101003.15
2022-12-06T08:41:12.024Z,101008.29
2022-12-06T08:43:40.196Z,101012.91
2022-12-06T08:46:08.299Z,101024.84
2022-12-06T08:48:41.353Z,101027.35
2022-12-06T08:51:11.180Z,101032.91
2022-12-06T08:53:39.359Z,101033.43
2022-12-06T08:56:07.843Z,101039.73
2022-12-06T08:58:36.224Z,101039.67
2022-12-06T09:01:16.197Z,101041.52
2022-12-06T09:03:44.431Z,101041.65
2022-12-06T09:06:12.938Z,101047.98
2022-12-06T09:08:41.219Z,101049.39
2022-12-06T09:11:09.703Z,101048.05
2022-12-06T09:13:38.826Z,101048.91
2022-12-06T09:16:12.451Z,101051.98
2022-12-06T09:18:40.584Z,101053.29
2022-12-06T09:21:11.117Z,101053.92
2022-12-06T09:23:39.763Z,101057.41
2022-12-06T09:26:08.469Z,101053.77
2022-12-06T09:28:38.873Z,101060.62
2022-12-06T09:31:09.088Z,101058.83
2022-12-06T09:33:37.840Z,101058.38
2022-12-06T09:36:23.187Z,101056.65
2022-12-06T09:39:00.928Z,101060.64
2022-12-06T09:41:50.987Z,101061.09
2022-12-06T09:44:31.339Z,101067.74
2022-12-06T09:47:05.760Z,101072.73
2022-12-06T09:50:04.230Z,101072.80
2022-12-06T09:52:41.216Z,101074.42
2022-12-06T09:55:56.294Z,101076.14
2022-12-06T09:58:39.373Z,101075.52
2022-12-06T10:01:28.910Z,101078.27
2022-12-06T10:04:19.631Z,101077.05
2022-12-06T10:06:57.457Z,101075.17
2022-12-06T10:09:50.269Z,101076.71
2022-12-06T10:12:30.522Z,101074.03
2022-12-06T10:15:07.706Z,101076.93
2022-12-06T10:17:54.469Z,101074.91
2022-12-06T10:20:31.924Z,101074.88
2022-12-06T10:23:18.708Z,101071.99
2022-12-06T10:25:58.665Z,101065.08
2022-12-06T10:28:45.043Z,101066.86
2022-12-06T10:31:22.379Z,101061.27
2022-12-06T10:33:52.961Z,101064.23
2022-12-06T10:36:41.093Z,101069.43
2022-12-06T10:39:21.556Z,101070.98
2022-12-06T10:42:13.272Z,101064.45
2022-12-06T10:44:48.512Z,101057.50
2022-12-06T10:47:23.947Z,101061.29
2022-12-06T10:49:54.585Z,101054.88
2022-12-06T10:52:42.793Z,101055.39
2022-12-06T10:55:10.698Z,101050.93
2022-12-06T10:57:49.411Z,101047.84
2022-12-06T11:00:25.632Z,101045.20
2022-12-06T11:03:31.608Z,101039.94
2022-12-06T11:06:07.931Z,101039.06
2022-12-06T11:08:58.708Z,101037.52
2022-12-06T11:11:33.294Z,101041.20
2022-12-06T11:14:07.211Z,101042.33
2022-12-06T11:16:44.675Z,101041.73
2022-12-06T11:19:43.878Z,101041.76
2022-12-06T11:22:45.829Z,101039.77
2022-12-06T11:25:31.822Z,101038.87
2022-12-06T11:28:09.306Z,101038.09
2022-12-06T11:30:38.403Z,101039.38
2022-12-06T11:33:06.582Z,101038.42
2022-12-06T11:35:34.657Z,101040.61
2022-12-06T11:38:07.293Z,101034.13
2022-12-06T11:40:43.971Z,101033.92
2022-12-06T11:43:24.315Z,101029.97
2022-12-06T11:45:55.613Z,101028.21
2022-12-06T11:48:25.660Z,101020.93
2022-12-06T11:50:54.324Z,101020.34
2022-12-06T11:53:35.698Z,101021.48
2022-12-06T11:56:24.356Z,101015.45
2022-12-06T11:59:26.092Z,101014.11
2022-12-06T12:01:57.206Z,101011.77
2022-12-06T12:04:31.262Z,101010.46
2022-12-06T12:06:59.325Z,101005.55
2022-12-06T12:09:31.432Z,100998.13
2022-12-06T12:12:15.126Z,100996.79
2022-12-06T12:14:49.612Z,100996.80
2022-12-06T12:17:22.744Z,100994.33
2022-12-06T12:19:57.084Z,100998.10
2022-12-06T12:22:27.798Z,100993.95
2022-12-06T12:25:22.929Z,100996.92
2022-12-06T12:28:01.915Z,100996.20
2022-12-06T12:30:40.640Z,100994.08
2022-12-06T12:33:08.507Z,100996.74
2022-12-06T12:35:38.340Z,100995.45
2022-12-06T12:38:28.910Z,100993.73
2022-12-06T12:41:03.623Z,100992.13
2022-12-06T12:43:34.168Z,100986.36
2022-12-06T12:46:11.370Z,100985.64
2022-12-06T12:48:42.732Z,100985.24
2022-12-06T12:51:24.900Z,100981.20
2022-12-06T12:54:18.282Z,100983.17
2022-12-06T12:56:46.329Z,100978.46
2022-12-06T12:59:20.236Z,100982.38
2022-12-06T13:01:56.715Z,100983.14
2022-12-06T13:04:45.856Z,100984.48
2022-12-06T13:07:27.957Z,100987.80
2022-12-06T13:10:09.380Z,100987.29
2022-12-06T13:12:46.540Z,100983.73
2022-12-06T13:15:16.539Z,100983.27
2022-12-06T13:17:57.918Z,100978.77
2022-12-06T13:20:34.515Z,100970.92
2022-12-06T13:23:12.621Z,100967.27
2022-12-06T13:25:43.234Z,100964.84
2022-12-06T13:28:19.486Z,100967.20
2022-12-06T13:30:53.942Z,100967.37
2022-12-06T13:33:25.984Z,100963.93
2022-12-06T13:36:00.497Z,100967.05
2022-12-06T13:38:34.832Z,100964.38
2022-12-06T13:41:11.596Z,100966.12
2022-12-06T13:43:41.202Z,100961.36
2022-12-06T13:46:09.482Z,100961.98
2022-12-06T13:48:49.021Z,100959.88
2022-12-06T13:51:32.244Z,100961.34
2022-12-06T13:54:06.058Z,100956.25
2022-12-06T13:56:34.159Z,100955.27
2022-12-06T13:59:11.620Z,100954.45
2022-12-06T14:01:40.642Z,100956.25
2022-12-06T14:04:24.449Z,100955.17
2022-12-06T14:06:55.303Z,100957.42
2022-12-06T14:09:25.592Z,100953.95
2022-12-06T14:11:53.543Z,100959.06
2022-12-06T14:14:25.757Z,100959.23
2022-12-06T14:17:03.942Z,100965.08
2022-12-06T14:19:46.649Z,100961.27
2022-12-06T14:22:25.117Z,100962.71
2022-12-06T14:25:19.270Z,100968.52
2022-12-06T14:27:50.529Z,100968.73
2022-12-06T14:30:26.197Z,100972.10
2022-12-06T14:32:57.207Z,100970.63
2022-12-06T14:35:34.536Z,100968.09
2022-12-06T14:38:18.010Z,100969.97
2022-12-06T14:40:47.455Z,100967.70
2022-12-06T14:43:19.386Z,100968.87
2022-12-06T14:45:48.422Z,100968.75
2022-12-06T14:48:17.238Z,100966.56
2022-12-06T14:50:50.823Z,100969.02
2022-12-06T14:53:36.213Z,100973.36
2022-12-06T14:56:24.583Z,100972.42
2022-12-06T14:58:53.177Z,100974.09
2022-12-06T15:01:25.955Z,100971.45
2022-12-06T15:04:27.627Z,100968.88
2022-12-06T15:06:57.207Z,100972.17
2022-12-06T15:09:25.546Z,100978.13
2022-12-06T15:12:28.460Z,100981.02
2022-12-06T15:14:57.118Z,100981.82
2022-12-06T15:17:25.645Z,100983.96
2022-12-06T15:19:54.759Z,100982.94
2022-12-06T15:22:25.985Z,100987.18
2022-12-06T15:24:58.142Z,100992.94
2022-12-06T15:27:26.605Z,100996.38
2022-12-06T15:29:55.020Z,100998.65
2022-12-06T15:32:25.490Z,100994.42
2022-12-06T15:34:53.630Z,100990.25
2022-12-06T15:37:39.302Z,100994.26
2022-12-06T15:40:08.917Z,100992.09
2022-12-06T15:42:36.992Z,100992.80
2022-12-06T15:45:05.893Z,100993.67
2022-12-06T15:47:34.543Z,100996.77
2022-12-06T15:50:02.550Z,100992.67
2022-12-06T15:52:30.832Z,100990.82
2022-12-06T15:54:59.518Z,100990.50
2022-12-06T15:57:27.698Z,100988.25
2022-12-06T15:59:56.083Z,100991.95
2022-12-06T16:02:24.732Z,100991.95
2022-12-06T16:04:53.573Z,100992.02
2022-12-06T16:07:21.847Z,100992.66
2022-12-06T16:09:50.339Z,100993.38
2022-12-06T16:12:18.513Z,100993.14
2022-12-06T16:14:46.794Z,100994.19
2022-12-06T16:17:15.071Z,100997.08
2022-12-06T16:19:43.256Z,100998.98
2022-12-06T16:22:11.301Z,101002.77
2022-12-06T16:24:39.403Z,101001.95
2022-12-06T16:27:09.202Z,101000.60
2022-12-06T16:29:37.616Z,101006.23
2022-12-06T16:32:06.268Z,101010.17
2022-12-06T16:34:35.098Z,101013.39
2022-12-06T16:37:06.349Z,101010.34
2022-12-06T16:39:35.231Z,101006.89
2022-12-06T16:42:04.753Z,101002.55
2022-12-06T16:44:34.345Z,101003.75
2022-12-06T16:47:06.677Z,101003.52
2022-12-06T16:49:48.851Z,101004.64
2022-12-06T16:52:17.731Z,101004.40
2022-12-06T16:54:46.028Z,100998.13
2022-12-06T16:57:15.192Z,100996.68
2022-12-06T16:59:43.462Z,100995.65
2022-12-06T17:02:30.282Z,100999.33
2022-12-06T17:05:02.455Z,101003.67
2022-12-06T17:07:31.224Z,101003.11
2022-12-06T17:10:00.475Z,101000.31
2022-12-06T17:12:28.543Z,101002.48
2022-12-06T17:14:57.276Z,101002.39
2022-12-06T17:17:25.385Z,101005.38
2022-12-06T17:19:54.230Z,101006.41
2022-12-06T17:22:22.874Z,101006.73
2022-12-06T17:24:50.943Z,101014.60
2022-12-06T17:27:19.140Z,101012.52
2022-12-06T17:29:47.351Z,101015.02
2022-12-06T17:32:15.479Z,101014.52
2022-12-06T17:34:43.757Z,101015.47
2022-12-06T17:37:12.451Z,101018.67
2022-12-06T17:39:40.533Z,101021.02
2022-12-06T17:42:10.929Z,101023.73
2022-12-06T17:44:39.130Z,101024.11
2022-12-06T17:47:07.722Z,101023.17
2022-12-06T17:49:35.847Z,101025.73
2022-12-06T17:52:04.834Z,101021.16
2022-12-06T17:54:32.955Z,101020.75
2022-12-06T17:57:01.049Z,101021.52
2022-12-06T17:59:32.175Z,101020.06
2022-12-06T18:02:17.683Z,101022.72
2022-12-06T18:04:48.206Z,101021.35
2022-12-06T18:07:17.717Z,101020.48
2022-12-06T18:09:45.892Z,101024.81
2022-12-06T18:12:15.799Z,101026.55
2022-12-06T18:14:44.991Z,101028.06
2022-12-06T18:17:13.181Z,101028.55
2022-12-06T18:19:41.715Z,101031.05
2022-12-06T18:22:09.743Z,101029.92
2022-12-06T18:24:37.819Z,101029.13
2022-12-06T18:27:07.507Z,101029.69
2022-12-06T18:29:35.543Z,101035.56
2022-12-06T18:32:04.149Z,101041.71
2022-12-06T18:34:32.423Z,101044.60
2022-12-06T18:37:00.456Z,101044.50
2022-12-06T18:39:28.528Z,101049.17
2022-12-06T18:41:57.232Z,101050.94
2022-12-06T18:44:25.907Z,101053.90
2022-12-06T18:47:00.133Z,101050.94
2022-12-06T18:49:29.015Z,101057.77
2022-12-06T18:51:57.411Z,101058.31
2022-12-06T18:54:25.459Z,101061.89
2022-12-06T18:56:53.554Z,101069.74
2022-12-06T18:59:27.329Z,101074.31
2022-12-06T19:01:56.081Z,101082.75
2022-12-06T19:04:24.634Z,101079.59
2022-12-06T19:06:52.816Z,101082.70
2022-12-06T19:09:21.299Z,101083.19
2022-12-06T19:11:49.581Z,101078.91
2022-12-06T19:14:17.762Z,101073.60
2022-12-06T19:16:48.264Z,101069.81
2022-12-06T19:19:29.211Z,101066.76
2022-12-06T19:21:59.497Z,101067.13
2022-12-06T19:24:28.999Z,101067.38
2022-12-06T19:26:57.583Z,101069.48
2022-12-06T19:29:27.396Z,101066.84
2022-12-06T19:31:55.369Z,101072.37
2022-12-06T19:34:26.514Z,101072.06
2022-12-06T19:36:55.111Z,101067.02
2022-12-06T19:39:23.922Z,101069.34
2022-12-06T19:41:52.624Z,101070.08
2022-12-06T19:44:20.767Z,101075.55
2022-12-06T19:46:48.992Z,101079.39
2022-12-06T19:49:18.884Z,101076.20
2022-12-06T19:51:48.019Z,101077.86
2022-12-06T19:54:19.480Z,101079.06
2022-12-06T19:56:49.231Z,101077.22
2022-12-06T19:59:17.309Z,101079.77
2022-12-06T20:01:48.053Z,101084.09
2022-12-06T20:04:18.859Z,101080.19
2022-12-06T20:06:47.475Z,101077.88
2022-12-06T20:09:18.176Z,101074.66
2022-12-06T20:11:47.022Z,101073.85
2022-12-06T20:14:17.586Z,101071.52
2022-12-06T20:16:46.017Z,101077.16
2022-12-06T20:19:15.317Z,101078.36
2022-12-06T20:21:44.219Z,101080.86
2022-12-06T20:24:16.445Z,101079.35
2022-12-06T20:26:45.584Z,101079.35
2022-12-06T20:29:13.558Z,101077.49
2022-12-06T20:31:41.710Z,101078.61
2022-12-06T20:34:14.977Z,101079.77
2022-12-06T20:36:43.833Z,101080.33
2022-12-06T20:39:30.748Z,101078.38
2022-12-06T20:41:59.215Z,101077.09
2022-12-06T20:44:27.361Z,101070.10
2022-12-06T20:46:55.550Z,101072.42
2022-12-06T20:49:23.751Z,101081.57
2022-12-06T20:51:53.611Z,101086.18
2022-12-06T20:54:22.461Z,101095.45
2022-12-06T20:56:50.846Z,101099.13
2022-12-06T20:59:19.125Z,101102.02
2022-12-06T21:01:47.823Z,101100.56
2022-12-06T21:04:16.606Z,101106.09
